Terminal Aerodrome Forecast
Issued by NWS

Home | Current Version | Previous Version | Text Only | Print | Product List | Glossary On
Versions: 1 2 3 4 5 6 7 8 9 10 11 12 13 14 15 16 17 18 19 20 21
585
FTUS43 KICT 221722
TAFCNU
TAF
KCNU 221722Z 2218/2318 10012KT P6SM BKN035
     FM230000 12009KT P6SM OVC027
     FM230600 13011KT P6SM VCSH OVC020
     FM231100 15013KT 6SM BR OVC012
     FM231500 16017G25KT P6SM BKN020=

USA.gov is the U.S. government's official web portal to all federal, state and local government web resources and services.